map of PHT home
PHT - Airport
Location
City:  Paris, Tennessee, United States
Name:Henry County Airport
ICAO:KPHT
IATA:PHT
FAA LID:PHT

Details
Type:Airport (Airfield)
Use:Public/Civil
Latitude:3620'09"N (36.335944)
Longitude:8823'04"W (-88.384443)
Datum:WGS 1984
Elevation:580 ft (177 m)
Variation:2.69W (WMM2015v2 magnetic declination)
-0.06 annual change
Runways:1
Longest:5001 × 100 ft (1524 × 30.5 m), paved

Time
Time Zone:UTC-6 (DST-5)
Local Time:

Weather
METAR:KPHT 041415Z AUTO 18012KT 10SM BKN008 OVC017 14/13 A2990 RMK A01

Related Locations
Nearby:
Farthest:YAUG: 11110 mi / 17879 km
Augusta [Augusta Airport], WA, AU

Find:

   beyond  
but within

Other Information
Maps:
NOTAMs:
Links:
Sources:

  
  • flag of United States
  • flag of Tennessee
  

Sectional Chart

Flight Planning
at skyvector.com

Satellite Image

Google Maps Satellite view

 

Copyright © 2004-2019 Karl L. Swartz. All rights reserved.
The Great Circle Mapper name and logo are trademarks of the Great Circle Mapper.
All other trademarks mentioned herein belong to their respective owners.
Please see credits for attibutions and further copyright information.

  Follow gcmap on Facebook Follow gcmap on Twitter GCmap on LinkedIn

hCard Microformat

Geo Microformat